Time;durP1;ratioP1;P1;durP2;ratioP2;P2;SDS_P1;SDS_P2;PMS_P1;PMS_P2;Temp;Humidity;BMP_temperature;BMP_pressure;BME280_temperature;BME280_humidity;BME280_pressure;Samples;Min_cycle;Max_cycle;Signal;HPM_P1;HPM_P2
2021/12/10 00:00:15;;;;;;;9.13;2.22;;;21.80;78.40;;;;;;5066134;28;20020;-73
2021/12/10 00:02:46;;;;;;;4.45;1.40;;;21.70;78.30;;;;;;5068264;28;20020;-72
2021/12/10 00:05:16;;;;;;;6.53;1.30;;;21.70;78.50;;;;;;5066756;28;20037;-72
2021/12/10 00:07:44;;;;;;;5.18;1.42;;;21.70;78.30;;;;;;5069422;28;20017;-72
2021/12/10 00:10:25;;;;;;;7.95;2.13;;;21.70;78.50;;;;;;5068324;28;20082;-72
2021/12/10 00:12:52;;;;;;;4.07;1.45;;;21.70;78.80;;;;;;5067462;28;20021;-72
2021/12/10 00:15:23;;;;;;;5.88;1.38;;;21.70;78.60;;;;;;5066987;28;20132;-72
2021/12/10 00:17:52;;;;;;;5.82;1.73;;;21.70;78.50;;;;;;5068439;28;20109;-72
2021/12/10 00:20:23;;;;;;;6.50;1.60;;;21.70;78.20;;;;;;5069834;28;20019;-72
2021/12/10 00:23:01;;;;;;;4.72;1.13;;;21.60;78.00;;;;;;5066044;28;20452;-72
2021/12/10 00:25:36;;;;;;;6.93;2.95;;;21.60;77.70;;;;;;5066177;28;20598;-72
2021/12/10 00:28:14;;;;;;;6.15;1.73;;;21.60;77.70;;;;;;5067059;28;20020;-72
2021/12/10 00:30:58;;;;;;;9.00;1.80;;;21.50;77.50;;;;;;5066978;28;20128;-72
2021/12/10 00:33:25;;;;;;;3.35;1.42;;;21.40;77.90;;;;;;5067847;28;20365;-72
2021/12/10 00:35:55;;;;;;;7.47;1.52;;;21.40;78.10;;;;;;5067676;28;20031;-72
2021/12/10 00:38:23;;;;;;;6.22;2.03;;;21.40;78.00;;;;;;5066657;28;20110;-72
2021/12/10 00:40:51;;;;;;;3.70;1.35;;;21.40;78.20;;;;;;5067018;28;20025;-72
2021/12/10 00:43:18;;;;;;;3.38;1.67;;;21.40;78.20;;;;;;5068475;28;20075;-72
2021/12/10 00:45:44;;;;;;;4.80;1.15;;;21.40;78.20;;;;;;5066989;28;20066;-72
2021/12/10 00:48:12;;;;;;;7.47;1.27;;;21.40;78.10;;;;;;5067053;28;20024;-72
2021/12/10 00:50:47;;;;;;;4.22;1.55;;;21.40;78.20;;;;;;5068639;28;20082;-72
2021/12/10 00:53:15;;;;;;;3.42;1.10;;;21.40;78.20;;;;;;5066826;28;20066;-72
2021/12/10 00:55:41;;;;;;;4.05;1.30;;;21.40;78.20;;;;;;5068996;28;20039;-71
2021/12/10 00:58:08;;;;;;;6.80;1.67;;;21.40;78.30;;;;;;5067026;28;20111;-72
2021/12/10 01:00:40;;;;;;;6.78;1.85;;;21.40;78.30;;;;;;5067131;28;20264;-72
2021/12/10 01:03:09;;;;;;;10.45;2.20;;;21.40;78.50;;;;;;5066398;28;20024;-71
2021/12/10 01:05:37;;;;;;;4.00;1.20;;;21.40;78.50;;;;;;5066370;28;20066;-72
2021/12/10 01:08:04;;;;;;;5.30;1.85;;;21.40;78.50;;;;;;5065289;28;20013;-72
2021/12/10 01:10:39;;;;;;;4.95;1.10;;;21.40;78.80;;;;;;5064729;28;20109;-71
2021/12/10 01:13:13;;;;;;;10.85;2.15;;;21.40;78.90;;;;;;5066596;28;20028;-71
2021/12/10 01:23:46;;;;;;;12.40;2.55;;;21.30;79.10;;;;;;5067123;28;20033;-71
2021/12/10 01:24:52;;;;;;;4.45;1.55;;;21.20;79.30;;;;;;5062848;28;20075;-71
2021/12/10 01:27:25;;;;;;;2.90;1.40;;;21.20;79.30;;;;;;5066095;28;20032;-72
2021/12/10 01:29:56;;;;;;;6.30;1.50;;;21.20;79.50;;;;;;5067211;28;20106;-72
2021/12/10 01:32:26;;;;;;;7.22;1.67;;;21.10;79.60;;;;;;5065470;28;20463;-71
2021/12/10 01:34:53;;;;;;;4.20;1.30;;;21.10;79.70;;;;;;5064567;28;20087;-71
2021/12/10 01:37:20;;;;;;;5.22;2.08;;;21.10;79.70;;;;;;5066865;28;20020;-72
2021/12/10 01:39:46;;;;;;;6.45;2.20;;;21.10;79.70;;;;;;5069638;28;20506;-71
2021/12/10 01:42:33;;;;;;;9.43;2.00;;;21.10;79.80;;;;;;5064604;28;20024;-71
2021/12/10 01:45:01;;;;;;;6.30;1.58;;;21.00;79.60;;;;;;5065048;28;20558;-71
2021/12/10 01:47:35;;;;;;;5.78;1.45;;;21.00;79.70;;;;;;5065224;28;20021;-72
2021/12/10 01:50:04;;;;;;;5.28;1.58;;;21.00;79.60;;;;;;5060474;28;20025;-72
2021/12/10 01:52:31;;;;;;;3.88;1.08;;;21.00;79.50;;;;;;5066357;28;20021;-72
2021/12/10 01:55:00;;;;;;;10.38;2.05;;;21.00;79.40;;;;;;5065363;28;20036;-73
2021/12/10 01:57:32;;;;;;;4.72;1.80;;;21.00;79.60;;;;;;5067857;28;20040;-72
2021/12/10 01:59:58;;;;;;;4.15;1.20;;;21.00;79.50;;;;;;5065121;28;20029;-72
2021/12/10 02:02:30;;;;;;;6.90;1.52;;;21.00;79.40;;;;;;5065636;28;20085;-71
2021/12/10 02:04:57;;;;;;;6.72;1.48;;;21.00;79.30;;;;;;5067266;28;20097;-72
2021/12/10 02:07:27;;;;;;;6.22;1.58;;;20.90;79.40;;;;;;5066799;28;20023;-72
2021/12/10 02:09:54;;;;;;;5.07;1.38;;;20.90;79.50;;;;;;5068385;28;20051;-72
2021/12/10 02:12:21;;;;;;;6.57;2.42;;;21.00;79.60;;;;;;5067290;28;20372;-72
2021/12/10 02:14:57;;;;;;;6.95;1.52;;;20.90;79.70;;;;;;5071609;28;20025;-72
2021/12/10 02:17:25;;;;;;;5.32;1.10;;;21.00;79.80;;;;;;5071309;28;20028;-71
2021/12/10 02:19:51;;;;;;;4.70;1.40;;;20.90;79.70;;;;;;5069872;28;20086;-72
2021/12/10 02:22:18;;;;;;;3.45;1.50;;;20.90;79.80;;;;;;5072285;28;20129;-72
2021/12/10 02:24:45;;;;;;;5.97;1.50;;;21.00;79.90;;;;;;5067710;28;20346;-72
2021/12/10 02:27:11;;;;;;;3.30;1.00;;;21.00;80.00;;;;;;5069578;28;20452;-72
2021/12/10 02:29:41;;;;;;;4.38;1.50;;;21.00;80.00;;;;;;5069846;28;20067;-72
2021/12/10 02:32:10;;;;;;;5.00;1.30;;;21.00;80.00;;;;;;5070919;28;20020;-72
2021/12/10 02:34:37;;;;;;;6.30;1.75;;;21.00;79.90;;;;;;5070859;28;20027;-71
2021/12/10 02:37:05;;;;;;;3.85;1.13;;;21.00;79.80;;;;;;5068775;28;20028;-71
2021/12/10 02:39:32;;;;;;;8.05;1.88;;;20.90;79.80;;;;;;5070216;28;20034;-71
2021/12/10 02:41:59;;;;;;;3.55;1.30;;;20.90;79.80;;;;;;5068383;28;20021;-72
2021/12/10 02:44:29;;;;;;;3.88;1.45;;;20.90;79.90;;;;;;5071536;28;20044;-71
2021/12/10 02:46:56;;;;;;;8.65;1.95;;;20.90;79.80;;;;;;5066761;28;20082;-72
2021/12/10 02:49:23;;;;;;;6.40;2.10;;;20.90;79.70;;;;;;5070441;28;20017;-71
2021/12/10 02:51:50;;;;;;;4.90;1.58;;;20.90;79.80;;;;;;5071170;28;20020;-69
2021/12/10 02:54:22;;;;;;;27.55;21.75;;;20.90;80.10;;;;;;5069003;28;21469;-71
2021/12/10 02:56:50;;;;;;;30.25;20.88;;;20.90;80.10;;;;;;5070825;28;20111;-70
2021/12/10 02:59:18;;;;;;;7.05;3.60;;;20.90;80.20;;;;;;5066139;28;20063;-71
2021/12/10 03:01:48;;;;;;;8.40;1.98;;;20.90;80.10;;;;;;5072216;28;20047;-72
2021/12/10 03:04:14;;;;;;;6.63;1.83;;;20.90;80.10;;;;;;5067794;28;20066;-70
2021/12/10 03:06:55;;;;;;;25.52;17.50;;;20.90;80.00;;;;;;5071594;28;20478;-71
2021/12/10 03:09:24;;;;;;;59.10;50.65;;;20.90;80.00;;;;;;5070595;28;20378;-70
2021/12/10 03:11:53;;;;;;;11.98;7.18;;;21.00;80.10;;;;;;5070865;28;20108;-71
2021/12/10 03:14:24;;;;;;;5.07;1.98;;;20.90;79.90;;;;;;5067563;28;20031;-71
2021/12/10 03:16:53;;;;;;;4.10;2.10;;;20.90;79.90;;;;;;5068688;28;20091;-71
2021/12/10 03:19:20;;;;;;;9.20;1.67;;;20.90;79.80;;;;;;5069929;28;20121;-71
2021/12/10 03:21:48;;;;;;;5.28;1.35;;;20.90;79.90;;;;;;5067548;28;20707;-72
2021/12/10 03:24:17;;;;;;;4.82;1.65;;;20.90;80.00;;;;;;5069491;28;20534;-72
2021/12/10 03:26:45;;;;;;;7.78;2.45;;;20.80;80.00;;;;;;5071434;28;20497;-71
2021/12/10 03:29:11;;;;;;;8.65;1.70;;;20.80;80.10;;;;;;5068896;28;20567;-70
2021/12/10 03:31:39;;;;;;;7.78;2.58;;;20.80;79.90;;;;;;5071276;28;20061;-71
2021/12/10 03:34:06;;;;;;;8.38;2.15;;;20.70;79.90;;;;;;5068287;28;20045;-71
2021/12/10 03:36:33;;;;;;;12.50;2.25;;;20.70;80.10;;;;;;5072116;28;20463;-72
2021/12/10 03:39:00;;;;;;;13.82;2.55;;;20.70;80.40;;;;;;5068134;28;20020;-72
2021/12/10 03:41:27;;;;;;;6.00;2.28;;;20.70;80.80;;;;;;5071276;28;20021;-71
2021/12/10 03:43:54;;;;;;;3.97;1.38;;;20.70;80.60;;;;;;5067309;28;20025;-70
2021/12/10 03:46:22;;;;;;;8.63;1.80;;;20.70;80.70;;;;;;5070925;28;20086;-71
2021/12/10 03:48:49;;;;;;;55.55;44.30;;;20.70;80.80;;;;;;5068936;28;20021;-70
2021/12/10 03:51:20;;;;;;;6.63;3.97;;;20.80;81.30;;;;;;5069083;28;20411;-70
2021/12/10 03:53:48;;;;;;;5.40;1.65;;;20.80;81.00;;;;;;5067445;28;20028;-70
2021/12/10 03:56:18;;;;;;;6.22;2.13;;;20.80;80.90;;;;;;5068961;28;20075;-70
2021/12/10 03:58:45;;;;;;;6.95;2.15;;;20.80;80.80;;;;;;5068855;28;20032;-69
2021/12/10 04:01:14;;;;;;;7.05;1.95;;;20.80;81.00;;;;;;5069881;28;20016;-70
2021/12/10 04:04:20;;;;;;;7.82;2.70;;;20.70;81.00;;;;;;5069019;28;20370;-70
2021/12/10 04:07:26;;;;;;;8.52;2.40;;;20.70;81.10;;;;;;5069022;28;20494;-70
2021/12/10 04:10:32;;;;;;;6.07;1.73;;;20.70;81.30;;;;;;5066443;28;20025;-69
2021/12/10 04:13:38;;;;;;;9.95;2.03;;;20.70;81.40;;;;;;5065836;28;20067;-69
2021/12/10 04:16:44;;;;;;;5.85;1.63;;;20.70;81.50;;;;;;5068120;28;20043;-69
2021/12/10 04:19:51;;;;;;;5.60;1.20;;;20.70;81.70;;;;;;5069193;28;20028;-70
2021/12/10 04:22:57;;;;;;;3.38;1.55;;;20.80;82.10;;;;;;5069571;28;21184;-70
2021/12/10 04:26:03;;;;;;;17.13;8.27;;;20.80;82.30;;;;;;5066752;28;20029;-70
2021/12/10 04:29:09;;;;;;;31.90;23.85;;;20.90;82.60;;;;;;5067181;28;20037;-71
2021/12/10 04:32:15;;;;;;;8.52;3.97;;;20.90;83.00;;;;;;5068354;28;20044;-68
2021/12/10 04:34:41;;;;;;;4.75;1.50;;;20.90;82.90;;;;;;5064614;28;20348;-70
2021/12/10 04:37:10;;;;;;;28.63;10.77;;;20.90;82.90;;;;;;5067473;28;20369;-70
2021/12/10 04:39:44;;;;;;;21.27;16.85;;;21.00;83.10;;;;;;5067140;28;20032;-70
2021/12/10 04:42:11;;;;;;;15.98;12.00;;;21.00;82.90;;;;;;5066976;28;20352;-69
2021/12/10 04:44:37;;;;;;;3.78;3.28;;;21.10;82.70;;;;;;5068494;28;20020;-72
2021/12/10 04:47:04;;;;;;;14.63;2.25;;;21.10;82.40;;;;;;5068510;28;20107;-67
2021/12/10 04:49:31;;;;;;;9.40;1.65;;;21.10;81.80;;;;;;5068799;28;20074;-69
2021/12/10 04:51:57;;;;;;;4.03;0.88;;;21.10;81.40;;;;;;5067400;28;20141;-71
2021/12/10 04:54:26;;;;;;;7.53;1.50;;;21.20;80.90;;;;;;5069840;28;20020;-69
2021/12/10 04:56:55;;;;;;;32.05;4.13;;;21.20;80.50;;;;;;5064967;28;20024;-70
2021/12/10 04:59:22;;;;;;;15.77;1.90;;;21.20;81.20;;;;;;5068905;28;20082;-73
2021/12/10 05:01:50;;;;;;;7.03;1.55;;;21.30;81.20;;;;;;5069712;28;20542;-73
2021/12/10 05:04:16;;;;;;;4.60;1.15;;;21.30;81.00;;;;;;5066263;28;20059;-69
2021/12/10 05:06:43;;;;;;;4.68;1.45;;;21.40;80.70;;;;;;5068264;28;20017;-70
2021/12/10 05:09:12;;;;;;;2.45;1.67;;;21.40;80.50;;;;;;5066184;28;20021;-70
2021/12/10 05:11:40;;;;;;;12.45;2.30;;;21.40;80.40;;;;;;5069821;28;20055;-72
2021/12/10 05:14:46;;;;;;;7.30;1.58;;;21.50;80.30;;;;;;5066561;28;20478;-72
2021/12/10 05:17:52;;;;;;;4.70;1.20;;;21.50;80.10;;;;;;5068010;28;20410;-70
2021/12/10 05:20:58;;;;;;;9.02;1.60;;;21.60;80.00;;;;;;5067440;28;20039;-70
2021/12/10 05:24:04;;;;;;;26.88;17.98;;;21.60;79.90;;;;;;5077990;28;20056;-70
2021/12/10 05:26:51;;;;;;;234.88;177.15;;;21.70;80.00;;;;;;5077899;28;20020;-72
2021/12/10 05:29:17;;;;;;;27.90;20.65;;;21.70;79.90;;;;;;5079807;28;20498;-70
2021/12/10 05:31:45;;;;;;;12.50;6.57;;;21.70;80.20;;;;;;5076535;28;20032;-71
2021/12/10 05:34:13;;;;;;;4.43;2.63;;;21.70;79.30;;;;;;5077680;28;20136;-71
2021/12/10 05:36:40;;;;;;;5.57;2.58;;;21.70;79.10;;;;;;5091463;28;20159;-70
2021/12/10 05:39:08;;;;;;;8.40;2.58;;;21.80;79.10;;;;;;5078025;28;20367;-70
2021/12/10 05:41:35;;;;;;;8.55;1.98;;;21.80;79.00;;;;;;5076421;28;20471;-71
2021/12/10 05:44:02;;;;;;;12.68;1.80;;;21.90;78.90;;;;;;5079260;28;20018;-72
2021/12/10 05:46:29;;;;;;;8.05;1.95;;;21.90;78.70;;;;;;5080320;28;20074;-69
2021/12/10 05:48:56;;;;;;;3.47;1.52;;;22.00;78.40;;;;;;5076691;28;20108;-71
2021/12/10 05:51:22;;;;;;;6.85;1.70;;;22.00;78.00;;;;;;5080882;28;20106;-71
2021/12/10 05:53:51;;;;;;;9.38;2.83;;;22.00;77.70;;;;;;5084281;28;20032;-71
2021/12/10 05:56:18;;;;;;;4.95;2.15;;;22.10;77.60;;;;;;5079803;28;20020;-70
2021/12/10 05:58:45;;;;;;;54.83;43.55;;;22.10;77.60;;;;;;5081139;28;20032;-71
2021/12/10 06:01:14;;;;;;;16.10;7.82;;;22.20;77.30;;;;;;5082123;28;20052;-71
2021/12/10 06:03:51;;;;;;;24.77;6.68;;;22.20;75.70;;;;;;5084228;28;20020;-71
2021/12/10 06:06:21;;;;;;;21.13;6.03;;;22.20;73.70;;;;;;5076170;28;20027;-71
2021/12/10 06:08:49;;;;;;;19.35;5.32;;;22.10;72.00;;;;;;5077112;28;20033;-71
2021/12/10 06:11:17;;;;;;;30.30;6.57;;;21.90;72.20;;;;;;5082271;28;20402;-71
2021/12/10 06:13:45;;;;;;;18.70;5.13;;;21.80;72.20;;;;;;5073220;28;20066;-71
2021/12/10 06:16:15;;;;;;;14.00;4.70;;;21.60;72.30;;;;;;5085057;28;20140;-71
2021/12/10 06:18:42;;;;;;;24.23;4.95;;;21.60;72.50;;;;;;5076940;28;20091;-71
2021/12/10 06:21:08;;;;;;;14.00;4.93;;;21.40;72.40;;;;;;5079407;28;20024;-71
2021/12/10 06:23:35;;;;;;;17.35;5.60;;;21.30;73.20;;;;;;5072260;28;20031;-71
2021/12/10 06:26:03;;;;;;;20.33;4.40;;;21.20;73.60;;;;;;5082857;28;20107;-71
2021/12/10 06:28:32;;;;;;;13.07;3.67;;;21.20;74.00;;;;;;5077697;28;20016;-71
2021/12/10 06:30:59;;;;;;;13.25;4.80;;;21.20;74.40;;;;;;5076274;28;20041;-71
2021/12/10 06:33:28;;;;;;;11.45;3.67;;;21.20;75.30;;;;;;5081599;28;20033;-71
2021/12/10 06:35:58;;;;;;;5.40;2.80;;;21.20;75.80;;;;;;5076635;28;20081;-71
2021/12/10 06:38:25;;;;;;;9.70;2.92;;;21.30;75.30;;;;;;5083713;28;20026;-71
2021/12/10 06:40:52;;;;;;;8.02;2.90;;;21.30;74.60;;;;;;5076799;28;20029;-71
2021/12/10 06:43:20;;;;;;;12.05;2.83;;;21.40;74.90;;;;;;5078268;28;20026;-71
2021/12/10 06:45:51;;;;;;;9.15;3.95;;;21.40;74.60;;;;;;5071814;28;20025;-71
2021/12/10 06:48:20;;;;;;;5.32;3.20;;;21.50;74.40;;;;;;5069493;28;20052;-71
2021/12/10 06:50:52;;;;;;;6.50;2.75;;;21.50;74.00;;;;;;5070145;28;20024;-71
2021/12/10 06:53:58;;;;;;;9.75;3.50;;;21.50;74.30;;;;;;5066009;28;20028;-71
2021/12/10 06:57:04;;;;;;;6.32;2.85;;;21.60;74.20;;;;;;5068635;28;20031;-71
2021/12/10 07:00:10;;;;;;;4.60;2.97;;;21.70;74.00;;;;;;5072506;28;20092;-72
2021/12/10 07:03:16;;;;;;;4.47;2.42;;;21.70;74.00;;;;;;5069132;28;20024;-71
2021/12/10 07:06:22;;;;;;;4.90;2.88;;;21.80;74.20;;;;;;5070937;28;20028;-71
2021/12/10 07:09:31;;;;;;;6.07;2.72;;;21.80;73.90;;;;;;5069669;28;20025;-71
2021/12/10 07:12:37;;;;;;;9.20;2.63;;;21.80;73.90;;;;;;5069000;28;20028;-71
2021/12/10 07:15:43;;;;;;;7.25;2.42;;;21.90;74.20;;;;;;5068641;28;20535;-71
2021/12/10 07:18:49;;;;;;;5.32;2.78;;;22.00;73.90;;;;;;5071866;28;20025;-71
2021/12/10 07:21:55;;;;;;;4.57;2.28;;;22.00;73.70;;;;;;5070838;28;20368;-71
2021/12/10 07:25:01;;;;;;;7.40;3.10;;;22.00;73.30;;;;;;5069054;28;20431;-71
2021/12/10 07:28:08;;;;;;;10.70;5.50;;;22.00;73.40;;;;;;5069147;28;20024;-72
2021/12/10 07:31:14;;;;;;;4.85;3.72;;;22.00;73.70;;;;;;5068526;28;20047;-72
2021/12/10 07:34:20;;;;;;;11.07;3.45;;;22.00;73.90;;;;;;5065989;28;20364;-72
2021/12/10 07:37:26;;;;;;;4.88;3.28;;;22.00;73.70;;;;;;5070881;28;20076;-72
2021/12/10 07:39:52;;;;;;;2.05;1.73;;;22.00;73.60;;;;;;5069918;28;20075;-72
2021/12/10 07:42:19;;;;;;;2.55;2.35;;;21.90;73.50;;;;;;5067549;28;20647;-74
2021/12/10 07:44:46;;;;;;;6.32;2.10;;;21.80;73.90;;;;;;5065832;28;20077;-73
2021/12/10 07:47:14;;;;;;;6.22;2.92;;;21.90;74.30;;;;;;5067195;28;20028;-73
2021/12/10 07:49:42;;;;;;;16.80;4.60;;;21.90;74.60;;;;;;5065841;28;20036;-73
2021/12/10 07:52:16;;;;;;;5.63;1.65;;;22.00;74.00;;;;;;5069950;28;20348;-73
2021/12/10 07:54:48;;;;;;;5.88;2.20;;;22.00;73.60;;;;;;5060274;28;20031;-73
2021/12/10 07:57:20;;;;;;;3.78;1.90;;;22.10;72.60;;;;;;5067051;28;20061;-73
2021/12/10 07:59:48;;;;;;;5.18;2.78;;;22.00;72.80;;;;;;5063643;28;20406;-74
2021/12/10 08:02:16;;;;;;;2.72;2.38;;;22.00;73.00;;;;;;5064020;28;20104;-73
2021/12/10 08:04:42;;;;;;;3.40;2.10;;;22.00;72.80;;;;;;5061300;28;20020;-74
2021/12/10 08:07:10;;;;;;;6.05;1.80;;;22.00;72.80;;;;;;5062425;28;20036;-73
2021/12/10 08:09:37;;;;;;;2.35;1.50;;;22.00;72.60;;;;;;5062201;28;20029;-71
2021/12/10 08:12:03;;;;;;;3.60;1.20;;;21.90;72.60;;;;;;5065105;28;20013;-71
2021/12/10 08:14:30;;;;;;;1.80;1.52;;;21.90;73.00;;;;;;5064491;28;20025;-71
2021/12/10 08:16:56;;;;;;;2.20;1.58;;;21.90;72.70;;;;;;5062151;28;20030;-72
2021/12/10 08:19:23;;;;;;;2.30;2.20;;;21.90;72.80;;;;;;5059983;28;20043;-71
2021/12/10 08:21:50;;;;;;;1.80;1.50;;;22.00;73.10;;;;;;5068574;28;20071;-71
2021/12/10 08:24:16;;;;;;;0.95;0.95;;;22.00;72.90;;;;;;5063810;28;20023;-71
2021/12/10 08:26:43;;;;;;;3.17;1.10;;;22.10;73.00;;;;;;5065211;28;20021;-71
2021/12/10 08:29:11;;;;;;;3.50;1.70;;;22.20;72.80;;;;;;5063786;28;20141;-71
2021/12/10 08:31:38;;;;;;;1.30;1.20;;;22.20;72.40;;;;;;5067667;28;20063;-70
2021/12/10 08:34:05;;;;;;;1.70;1.40;;;22.10;72.90;;;;;;5064170;28;20021;-70
2021/12/10 08:36:33;;;;;;;4.35;1.58;;;22.10;73.00;;;;;;5063915;28;20024;-71
2021/12/10 08:39:01;;;;;;;1.95;1.40;;;22.20;73.20;;;;;;5062191;28;20265;-70
2021/12/10 08:41:32;;;;;;;1.60;1.50;;;22.20;73.10;;;;;;5063054;28;20024;-70
2021/12/10 08:43:59;;;;;;;2.65;1.83;;;22.30;73.00;;;;;;5065323;28;20032;-71
2021/12/10 08:46:28;;;;;;;4.22;2.15;;;22.30;72.80;;;;;;5064445;28;20046;-71
2021/12/10 08:48:58;;;;;;;3.15;2.47;;;22.40;73.00;;;;;;5063597;28;20017;-72
2021/12/10 08:51:30;;;;;;;1.65;1.55;;;22.40;73.20;;;;;;5065257;28;20555;-71
2021/12/10 08:53:57;;;;;;;2.38;1.85;;;22.50;72.90;;;;;;5064783;28;20506;-71
2021/12/10 08:56:24;;;;;;;5.60;1.98;;;22.50;72.70;;;;;;5060926;28;20021;-72
2021/12/10 08:58:51;;;;;;;13.15;2.42;;;22.60;72.60;;;;;;5062838;28;20020;-71
2021/12/10 09:01:21;;;;;;;3.05;1.98;;;22.70;72.40;;;;;;5067605;28;20023;-71
2021/12/10 09:03:50;;;;;;;3.28;1.70;;;22.70;72.20;;;;;;5064362;28;20869;-71
2021/12/10 09:06:19;;;;;;;2.92;1.98;;;22.80;72.40;;;;;;5062365;28;20067;-71
2021/12/10 09:08:46;;;;;;;4.13;2.45;;;22.80;71.50;;;;;;5065066;28;20075;-71
2021/12/10 09:11:13;;;;;;;3.13;2.10;;;22.80;72.00;;;;;;5065230;28;20032;-71
2021/12/10 09:13:42;;;;;;;4.28;2.67;;;22.80;72.10;;;;;;5066185;28;20028;-71
2021/12/10 09:16:19;;;;;;;5.45;3.50;;;22.80;72.10;;;;;;5063662;28;20535;-71
2021/12/10 09:18:46;;;;;;;7.22;3.00;;;22.80;72.30;;;;;;5062475;28;20043;-72
2021/12/10 09:21:12;;;;;;;5.32;3.38;;;22.90;72.50;;;;;;5051807;28;20036;-72
2021/12/10 09:23:39;;;;;;;5.35;3.67;;;22.90;72.00;;;;;;5067106;28;20021;-72
2021/12/10 09:26:13;;;;;;;3.85;3.10;;;23.00;71.80;;;;;;5063222;28;20433;-71
2021/12/10 09:28:42;;;;;;;7.22;3.60;;;23.00;71.30;;;;;;5064274;28;20042;-72
2021/12/10 09:31:24;;;;;;;7.35;4.47;;;23.00;71.40;;;;;;5061581;28;20056;-72
2021/12/10 09:33:54;;;;;;;7.20;4.07;;;23.00;71.30;;;;;;5064228;28;20033;-71
2021/12/10 09:36:20;;;;;;;6.03;3.83;;;23.00;71.30;;;;;;5069240;28;20109;-71
2021/12/10 09:38:47;;;;;;;10.85;4.55;;;23.00;71.20;;;;;;5062371;28;20021;-71
2021/12/10 09:41:14;;;;;;;9.57;4.70;;;23.10;71.30;;;;;;5062664;28;20530;-71
2021/12/10 09:43:41;;;;;;;6.30;4.18;;;23.10;71.10;;;;;;5066538;28;20482;-71
2021/12/10 09:46:09;;;;;;;9.60;3.97;;;23.20;71.20;;;;;;5065501;28;20370;-71
2021/12/10 09:48:37;;;;;;;10.88;5.18;;;23.20;70.60;;;;;;5067589;28;20016;-71
2021/12/10 09:51:09;;;;;;;14.57;4.40;;;23.30;70.80;;;;;;5062175;28;20504;-72
2021/12/10 09:53:37;;;;;;;6.82;4.28;;;23.40;70.80;;;;;;5068320;28;20786;-70
2021/12/10 09:56:04;;;;;;;11.20;4.65;;;23.60;70.50;;;;;;5061257;28;20510;-70
2021/12/10 09:58:32;;;;;;;11.07;4.25;;;23.70;69.40;;;;;;5062803;28;20468;-70
2021/12/10 10:01:14;;;;;;;9.65;3.97;;;23.70;69.40;;;;;;5061598;28;20386;-71
2021/12/10 10:03:43;;;;;;;15.77;8.95;;;23.80;69.90;;;;;;5064054;28;20221;-70
2021/12/10 10:06:12;;;;;;;8.60;5.03;;;23.80;68.40;;;;;;5063450;28;20013;-71
2021/12/10 10:08:39;;;;;;;5.85;4.10;;;23.80;68.70;;;;;;5067237;28;20033;-71
2021/12/10 10:11:17;;;;;;;8.70;4.22;;;23.90;68.40;;;;;;5063592;28;20274;-71
2021/12/10 10:13:48;;;;;;;5.60;4.15;;;23.90;68.50;;;;;;5066911;28;20554;-72
2021/12/10 10:16:15;;;;;;;6.88;4.20;;;24.00;68.40;;;;;;5064386;28;20019;-71
2021/12/10 10:18:44;;;;;;;6.95;4.15;;;23.90;68.10;;;;;;5063558;28;20021;-71
2021/12/10 10:21:14;;;;;;;6.20;4.28;;;24.00;68.20;;;;;;5064791;28;20031;-71
2021/12/10 10:23:42;;;;;;;8.13;4.60;;;24.00;67.30;;;;;;5063981;28;20084;-71
2021/12/10 10:26:14;;;;;;;8.77;4.28;;;24.00;67.90;;;;;;5059970;28;20035;-71
2021/12/10 10:28:41;;;;;;;9.52;5.53;;;24.10;68.10;;;;;;5055609;28;20031;-71
2021/12/10 10:31:17;;;;;;;15.43;4.55;;;24.10;67.30;;;;;;5063570;28;20056;-71
2021/12/10 10:33:45;;;;;;;8.52;5.45;;;24.10;67.30;;;;;;5065332;28;21492;-71
2021/12/10 10:36:19;;;;;;;12.68;8.55;;;24.10;67.70;;;;;;5071950;28;20048;-72
2021/12/10 10:38:56;;;;;;;10.80;6.07;;;24.00;67.40;;;;;;5066557;28;20024;-72
2021/12/10 10:41:27;;;;;;;10.75;6.22;;;24.00;67.30;;;;;;5064910;28;20035;-71
2021/12/10 10:43:55;;;;;;;9.82;6.70;;;24.00;67.70;;;;;;5064653;28;20082;-71
2021/12/10 10:46:22;;;;;;;9.63;6.30;;;23.80;67.60;;;;;;5066400;28;20124;-71
2021/12/10 10:48:49;;;;;;;17.63;7.50;;;23.80;67.70;;;;;;5064859;28;20458;-71
2021/12/10 10:51:41;;;;;;;8.32;6.07;;;23.80;68.30;;;;;;5067185;28;20480;-69
2021/12/10 10:54:12;;;;;;;14.55;5.53;;;23.90;68.10;;;;;;5065786;28;20033;-74
2021/12/10 10:56:43;;;;;;;9.23;6.53;;;23.90;68.20;;;;;;5068059;28;20016;-75
2021/12/10 10:59:17;;;;;;;6.68;4.95;;;23.90;67.40;;;;;;5064498;28;20025;-75
2021/12/10 11:01:57;;;;;;;6.88;4.95;;;24.00;67.60;;;;;;5066178;28;20020;-76
2021/12/10 11:04:28;;;;;;;8.82;5.35;;;23.90;67.60;;;;;;5069336;28;20078;-76
2021/12/10 11:07:23;;;;;;;10.38;6.53;;;23.80;67.70;;;;;;5067763;28;20406;-76
2021/12/10 11:09:55;;;;;;;12.55;7.03;;;23.70;67.80;;;;;;5066347;28;20450;-73
2021/12/10 11:12:28;;;;;;;13.05;5.38;;;23.80;68.30;;;;;;5065032;28;20403;-73
2021/12/10 11:14:57;;;;;;;8.85;4.82;;;23.90;68.10;;;;;;5067157;28;20066;-73
2021/12/10 11:17:32;;;;;;;7.03;4.40;;;24.00;67.60;;;;;;5063377;28;20031;-73
2021/12/10 11:20:21;;;;;;;6.75;4.10;;;24.00;67.20;;;;;;5071245;28;20118;-73
2021/12/10 11:23:00;;;;;;;7.45;4.55;;;24.10;67.60;;;;;;5061031;28;20032;-73
2021/12/10 11:25:34;;;;;;;8.65;3.47;;;24.20;66.80;;;;;;5067616;28;20403;-74
2021/12/10 11:28:28;;;;;;;5.80;3.45;;;24.30;66.70;;;;;;5063167;28;20056;-74
2021/12/10 11:31:04;;;;;;;8.32;4.15;;;24.40;66.40;;;;;;5065135;28;20113;-73
2021/12/10 11:33:39;;;;;;;9.60;4.43;;;24.40;66.10;;;;;;5067602;28;20054;-72
2021/12/10 11:36:15;;;;;;;9.75;4.88;;;24.50;66.20;;;;;;5064688;28;20072;-72
2021/12/10 11:38:45;;;;;;;117.03;98.15;;;24.60;65.80;;;;;;5067002;28;20029;-72
2021/12/10 11:41:23;;;;;;;16.52;9.77;;;24.70;65.40;;;;;;5065254;28;20028;-71
2021/12/10 11:46:47;;;;;;;7.45;4.22;;;24.70;65.20;;;;;;5066748;28;20032;-71
2021/12/10 11:49:35;;;;;;;8.90;4.22;;;24.80;65.50;;;;;;5070003;28;20025;-72
2021/12/10 11:52:04;;;;;;;9.55;4.35;;;24.80;65.10;;;;;;5065046;28;20119;-72
2021/12/10 11:54:45;;;;;;;8.18;3.92;;;24.90;64.90;;;;;;5067993;28;20028;-73
2021/12/10 11:57:16;;;;;;;9.05;4.18;;;24.90;64.90;;;;;;5067878;28;20023;-74
2021/12/10 11:59:46;;;;;;;9.27;4.30;;;25.00;65.30;;;;;;5070325;28;20081;-73
2021/12/10 12:02:12;;;;;;;12.35;4.60;;;25.00;64.80;;;;;;5068473;28;20033;-73
2021/12/10 12:05:06;;;;;;;6.25;4.20;;;25.00;64.80;;;;;;5074524;28;20030;-73
2021/12/10 12:07:35;;;;;;;27.52;4.85;;;25.00;64.50;;;;;;5073251;28;20031;-74
2021/12/10 12:10:16;;;;;;;4.00;2.47;;;25.00;65.00;;;;;;5065887;28;20105;-74
2021/12/10 12:12:50;;;;;;;4.63;2.78;;;25.20;64.20;;;;;;5072491;28;20023;-73
2021/12/10 12:15:34;;;;;;;4.30;2.80;;;25.20;63.50;;;;;;5069019;28;20435;-73
2021/12/10 12:18:09;;;;;;;4.28;2.85;;;25.40;63.70;;;;;;5066330;28;20032;-73
2021/12/10 12:20:38;;;;;;;43.90;39.63;;;25.50;62.80;;;;;;5068137;28;20082;-74
2021/12/10 12:25:54;;;;;;;4.18;2.60;;;25.60;62.30;;;;;;5060074;28;20039;-76
2021/12/10 12:28:24;;;;;;;4.65;2.58;;;25.70;62.20;;;;;;5066816;28;20021;-73
2021/12/10 12:31:10;;;;;;;2.33;1.92;;;25.70;61.80;;;;;;5065277;28;20044;-74
2021/12/10 12:34:08;;;;;;;;;;;25.60;61.30;;;;;;5064416;28;20025;-73
2021/12/10 12:36:52;;;;;;;5.50;2.80;;;25.40;61.60;;;;;;5038606;28;19985;-73
2021/12/10 12:39:39;;;;;;;4.57;3.33;;;25.30;62.40;;;;;;5065407;28;20024;-72
2021/12/10 12:42:18;;;;;;;8.30;3.10;;;25.20;62.40;;;;;;5059196;28;20040;-74
2021/12/10 12:44:47;;;;;;;14.90;12.43;;;24.90;62.70;;;;;;5066550;28;20028;-74
2021/12/10 12:47:36;;;;;;;7.72;4.40;;;24.90;63.20;;;;;;5065122;28;20031;-74
2021/12/10 12:50:16;;;;;;;4.80;3.00;;;24.80;63.10;;;;;;5061093;28;20141;-74
2021/12/10 12:52:51;;;;;;;4.55;2.38;;;24.60;64.00;;;;;;5063125;28;20020;-74
2021/12/10 12:55:48;;;;;;;1.83;1.73;;;24.50;64.80;;;;;;5061504;28;20028;-74
2021/12/10 12:58:26;;;;;;;5.72;2.92;;;24.50;65.40;;;;;;5062476;28;20029;-73
2021/12/10 13:01:22;;;;;;;57.00;7.53;;;24.40;65.70;;;;;;5065657;28;20537;-74
2021/12/10 13:03:59;;;;;;;7.88;4.90;;;24.40;66.10;;;;;;5055685;28;20560;-74
2021/12/10 13:06:36;;;;;;;4.97;4.40;;;24.30;66.40;;;;;;5067074;28;20024;-74
2021/12/10 13:09:11;;;;;;;5.03;3.85;;;24.20;66.80;;;;;;5061249;28;20036;-73
2021/12/10 13:12:09;;;;;;;8.95;4.43;;;24.20;66.70;;;;;;5062014;28;20038;-73
2021/12/10 13:14:55;;;;;;;4.55;3.00;;;24.10;67.70;;;;;;5065951;28;20086;-73
2021/12/10 13:17:37;;;;;;;4.78;3.42;;;23.80;67.50;;;;;;5062458;28;20498;-75
2021/12/10 13:20:20;;;;;;;5.55;3.50;;;23.70;68.20;;;;;;5061630;28;20039;-75
2021/12/10 13:22:51;;;;;;;5.50;3.47;;;23.70;68.50;;;;;;5067558;28;20025;-74
2021/12/10 13:25:20;;;;;;;6.93;3.65;;;23.80;68.60;;;;;;5065169;28;20013;-75
2021/12/10 13:27:47;;;;;;;7.55;3.65;;;23.80;68.80;;;;;;5061618;28;20419;-75
2021/12/10 13:30:20;;;;;;;4.55;3.85;;;23.80;68.30;;;;;;5066398;28;20106;-76